Time;durP1;ratioP1;P1;durP2;ratioP2;P2;SDS_P1;SDS_P2;PMS_P1;PMS_P2;Temp;Humidity;BMP_temperature;BMP_pressure;BME280_temperature;BME280_humidity;BME280_pressure;Samples;Min_cycle;Max_cycle;Signal;HPM_P1;HPM_P2
2022/08/15 00:01:58;;;;;;;;;;;;;;;22.10;51.12;97004.59;5012620;28;19921;-70
2022/08/15 00:04:26;;;;;;;;;;;;;;;21.98;51.53;96997.56;4993322;28;19922;-70
2022/08/15 00:07:01;;;;;;;;;;;;;;;21.99;51.56;96995.59;5012823;28;20008;-70
2022/08/15 00:09:29;;;;;;;;;;;;;;;22.08;51.11;96990.38;4995341;28;20438;-69
2022/08/15 00:12:18;;;;;;;;;;;;;;;22.13;51.20;96994.72;5012700;28;19925;-69
2022/08/15 00:15:01;;;;;;;;;;;;;;;22.08;51.25;96981.28;4995129;28;20320;-70
2022/08/15 00:17:29;;;;;;;;;;;;;;;22.14;51.13;96976.91;4998385;28;19987;-70
2022/08/15 00:20:15;;;;;;;;;;;;;;;22.14;51.28;96976.91;5012645;28;19921;-69
2022/08/15 00:22:50;;;;;;;;;;;;;;;22.08;51.31;96978.53;4995228;28;19929;-69
2022/08/15 00:25:18;;;;;;;;;;;;;;;22.08;51.25;96978.53;4995518;28;19921;-70
2022/08/15 00:27:53;;;;;;;;;;;;;;;22.03;51.47;96978.97;5007112;28;19921;-70
2022/08/15 00:30:22;;;;;;;;;;;;;;;21.94;51.69;96988.53;4994249;28;19971;-70
2022/08/15 00:32:53;;;;;;;;;;;;;;;21.97;51.51;96978.63;4986346;28;19922;-70
2022/08/15 00:35:41;;;;;;;;;;;;;;;21.94;51.50;96965.59;4983655;28;19977;-69
2022/08/15 00:38:18;;;;;;;;;;;;;;;21.89;51.86;96972.38;5001615;28;19933;-70
2022/08/15 00:43:47;;;;;;;;;;;;;;;21.90;51.90;96973.16;4995850;28;19953;-69
2022/08/15 00:46:16;;;;;;;;;;;;;;;21.82;52.32;96966.13;4980164;28;20435;-69
2022/08/15 00:48:51;;;;;;;;;;;;;;;21.87;52.07;96974.75;4980686;28;19988;-70
2022/08/15 00:51:20;;;;;;;;;;;;;;;21.87;52.09;96974.75;4996336;28;19922;-69
2022/08/15 00:54:02;;;;;;;;;;;;;;;21.89;51.50;96974.34;4980353;28;19976;-69
2022/08/15 00:56:31;;;;;;;;;;;;;;;21.91;51.83;96964.47;4995401;28;20024;-69
2022/08/15 00:58:59;;;;;;;;;;;;;;;21.94;51.60;96963.66;4982380;28;19958;-69
2022/08/15 01:01:29;;;;;;;;;;;;;;;21.91;51.97;96967.22;4981234;28;20029;-69
2022/08/15 01:04:01;;;;;;;;;;;;;;;21.88;51.91;96968.03;4979450;28;19976;-69
2022/08/15 01:06:29;;;;;;;;;;;;;;;21.87;51.94;96969.22;4979052;28;20416;-69
2022/08/15 01:09:01;;;;;;;;;;;;;;;21.90;51.76;96962.88;4994860;28;19922;-69
2022/08/15 01:11:36;;;;;;;;;;;;;;;21.82;52.07;96963.34;4995627;28;19969;-69
2022/08/15 01:14:06;;;;;;;;;;;;;;;21.87;51.84;96966.47;4996521;28;19921;-69
2022/08/15 01:16:54;;;;;;;;;;;;;;;21.77;52.15;96958.25;4973989;28;19928;-70
2022/08/15 01:19:23;;;;;;;;;;;;;;;21.81;52.22;96964.56;4994455;28;20371;-70
2022/08/15 01:22:03;;;;;;;;;;;;;;;21.65;52.83;96957.56;4976192;28;20392;-70
2022/08/15 01:24:43;;;;;;;;;;;;;;;21.73;52.14;96954.72;4992071;28;20291;-69
2022/08/15 01:27:33;;;;;;;;;;;;;;;21.63;53.00;96956.41;5005694;28;20248;-69
2022/08/15 01:30:01;;;;;;;;;;;;;;;21.57;52.90;96950.53;4999855;28;19960;-69
2022/08/15 01:32:32;;;;;;;;;;;;;;;21.62;52.82;96954.81;4996585;28;20362;-69
2022/08/15 01:35:02;;;;;;;;;;;;;;;21.61;52.79;96956.81;4998465;28;20336;-70
2022/08/15 01:37:31;;;;;;;;;;;;;;;21.65;52.62;96962.31;4993629;28;19928;-69
2022/08/15 01:40:48;;;;;;;;;;;;;;;21.72;52.47;96976.06;5016063;28;19979;-69
2022/08/15 01:43:23;;;;;;;;;;;;;;;21.62;52.98;96963.13;4997871;28;20284;-70
2022/08/15 01:45:53;;;;;;;;;;;;;;;21.61;53.17;96967.06;4998264;28;20024;-69
2022/08/15 01:48:26;;;;;;;;;;;;;;;21.63;52.96;96975.75;4994968;28;19980;-70
2022/08/15 01:50:55;;;;;;;;;;;;;;;21.49;53.67;96971.13;4994888;28;20376;-69
2022/08/15 01:53:27;;;;;;;;;;;;;;;21.40;53.79;96968.00;5014131;28;19925;-70
2022/08/15 01:56:00;;;;;;;;;;;;;;;21.48;53.69;96971.53;4998203;28;20383;-69
2022/08/15 01:58:35;;;;;;;;;;;;;;;21.37;53.69;96964.09;4996818;28;19929;-69
2022/08/15 02:01:10;;;;;;;;;;;;;;;21.50;53.37;96971.91;4997907;28;19925;-69
2022/08/15 02:03:39;;;;;;;;;;;;;;;21.49;53.54;96967.56;4996951;28;19921;-70
2022/08/15 02:06:18;;;;;;;;;;;;;;;21.39;53.99;96958.94;4997794;28;19925;-69
2022/08/15 02:08:47;;;;;;;;;;;;;;;21.48;53.87;96958.50;4989889;28;20024;-70
2022/08/15 02:11:21;;;;;;;;;;;;;;;21.51;53.85;96959.66;5002161;28;19921;-70
2022/08/15 02:13:54;;;;;;;;;;;;;;;21.52;53.57;96953.75;5004634;28;19921;-69
2022/08/15 02:16:23;;;;;;;;;;;;;;;21.53;53.69;96949.00;5011045;28;19969;-69
2022/08/15 02:18:53;;;;;;;;;;;;;;;21.53;53.55;96940.69;4994328;28;19987;-70
2022/08/15 02:21:46;;;;;;;;;;;;;;;21.52;53.59;96941.88;5013529;28;19992;-70
2022/08/15 02:24:15;;;;;;;;;;;;;;;21.55;53.67;96935.53;4997314;28;20395;-70
2022/08/15 02:26:50;;;;;;;;;;;;;;;21.44;53.77;96930.09;4996112;28;19968;-69
2022/08/15 02:32:20;;;;;;;;;;;;;;;21.52;53.61;96942.69;5014454;28;19923;-70
2022/08/15 02:35:00;;;;;;;;;;;;;;;21.53;53.61;96949.78;4997282;28;19925;-70
2022/08/15 02:37:32;;;;;;;;;;;;;;;21.54;53.49;96950.56;4999560;28;19929;-70
2022/08/15 02:40:07;;;;;;;;;;;;;;;21.55;53.47;96941.06;4996934;28;19921;-70
2022/08/15 02:42:58;;;;;;;;;;;;;;;21.54;53.48;96950.56;5011218;28;19968;-70
2022/08/15 02:45:26;;;;;;;;;;;;;;;21.50;53.63;96950.56;4992247;28;19928;-70
2022/08/15 02:47:55;;;;;;;;;;;;;;;21.50;53.93;96944.25;4991663;28;20283;-70
2022/08/15 02:50:26;;;;;;;;;;;;;;;21.52;53.77;96941.88;4996161;28;19921;-71
2022/08/15 02:52:55;;;;;;;;;;;;;;;21.48;53.73;96944.69;4993731;28;19929;-69
2022/08/15 02:55:23;;;;;;;;;;;;;;;21.49;53.61;96946.25;5006076;28;19953;-70
2022/08/15 02:57:54;;;;;;;;;;;;;;;21.50;53.84;96947.03;4997076;28;19976;-70
2022/08/15 03:00:28;;;;;;;;;;;;;;;21.51;53.77;96943.06;4996437;28;19957;-70
2022/08/15 03:03:05;;;;;;;;;;;;;;;21.47;53.84;96934.81;4998245;28;19925;-70
2022/08/15 03:05:34;;;;;;;;;;;;;;;21.44;53.86;96932.88;5005033;28;19931;-70
2022/08/15 03:08:02;;;;;;;;;;;;;;;21.50;53.98;96927.69;4991157;28;19928;-70
2022/08/15 03:10:30;;;;;;;;;;;;;;;21.53;53.83;96929.66;4995998;28;19922;-70
2022/08/15 03:13:03;;;;;;;;;;;;;;;21.52;53.90;96931.63;4996158;28;19921;-70
2022/08/15 03:15:39;;;;;;;;;;;;;;;21.52;53.77;96930.81;5013439;28;19925;-70
2022/08/15 03:18:11;;;;;;;;;;;;;;;21.48;53.90;96933.63;4996685;28;20407;-71
2022/08/15 03:23:34;;;;;;;;;;;;;;;21.43;54.28;96934.06;4995811;28;19921;-70
2022/08/15 03:26:10;;;;;;;;;;;;;;;21.39;54.36;96938.81;4989707;28;20368;-70
2022/08/15 03:32:14;;;;;;;;;;;;;;;21.34;54.33;96930.97;5012032;28;20325;-69
2022/08/15 03:35:01;;;;;;;;;;;;;;;21.39;54.30;96928.56;4995042;28;20016;-70
2022/08/15 03:37:30;;;;;;;;;;;;;;;21.48;54.05;96936.41;4996048;28;19928;-70
2022/08/15 03:39:58;;;;;;;;;;;;;;;21.43;54.06;96939.59;5001960;28;19964;-70
2022/08/15 03:45:18;;;;;;;;;;;;;;;21.09;55.62;96945.72;4994126;28;20261;-70
2022/08/15 03:47:48;;;;;;;;;;;;;;;21.18;55.14;96945.25;5016618;28;19921;-70
2022/08/15 03:50:16;;;;;;;;;;;;;;;21.10;55.44;96950.03;4995605;28;19921;-70
2022/08/15 03:52:58;;;;;;;;;;;;;;;21.11;55.40;96950.81;4995400;28;19921;-70
2022/08/15 03:55:27;;;;;;;;;;;;;;;21.11;55.25;96948.06;4993273;28;19929;-70
2022/08/15 03:57:55;;;;;;;;;;;;;;;21.14;55.16;96963.81;4993516;28;19963;-69
2022/08/15 04:00:33;;;;;;;;;;;;;;;21.15;55.05;96962.66;4992647;28;19969;-70
2022/08/15 04:03:07;;;;;;;;;;;;;;;21.15;55.19;96957.13;4995487;28;20042;-70
2022/08/15 04:05:38;;;;;;;;;;;;;;;21.21;55.17;96965.75;5011938;28;19925;-70
2022/08/15 04:08:10;;;;;;;;;;;;;;;21.23;55.13;96960.63;4992544;28;19933;-70
2022/08/15 04:11:02;;;;;;;;;;;;;;;21.27;54.96;96962.16;4992118;28;19922;-70
2022/08/15 04:13:31;;;;;;;;;;;;;;;21.24;55.02;96960.19;4988551;28;20272;-69
2022/08/15 04:16:01;;;;;;;;;;;;;;;21.22;55.11;96959.81;4995411;28;20016;-70
2022/08/15 04:18:34;;;;;;;;;;;;;;;21.25;54.97;96960.97;4988463;28;19925;-70
2022/08/15 04:21:12;;;;;;;;;;;;;;;21.29;54.64;96965.28;4989407;28;20004;-70
2022/08/15 04:23:40;;;;;;;;;;;;;;;21.33;54.50;96968.84;4993520;28;19922;-69
2022/08/15 04:26:09;;;;;;;;;;;;;;;21.33;54.53;96974.38;4999645;28;19921;-69
2022/08/15 04:28:37;;;;;;;;;;;;;;;21.31;54.48;96968.50;5000610;28;20372;-70
2022/08/15 04:31:46;;;;;;;;;;;;;;;21.35;54.39;96969.22;5010285;28;19929;-70
2022/08/15 04:34:15;;;;;;;;;;;;;;;21.34;54.63;96975.94;4990098;28;19922;-70
2022/08/15 04:37:04;;;;;;;;;;;;;;;21.33;54.55;96979.91;4994747;28;20016;-70
2022/08/15 04:39:42;;;;;;;;;;;;;;;21.34;54.26;96981.47;5000286;28;20438;-70
2022/08/15 04:42:11;;;;;;;;;;;;;;;21.38;54.38;96982.25;5007067;28;19921;-69
2022/08/15 04:44:46;;;;;;;;;;;;;;;21.41;53.92;96991.69;4988639;28;20368;-70
2022/08/15 04:47:15;;;;;;;;;;;;;;;21.44;53.73;96990.88;4997596;28;19921;-70
2022/08/15 04:49:47;;;;;;;;;;;;;;;21.43;53.55;96987.34;4994797;28;20019;-70
2022/08/15 04:52:16;;;;;;;;;;;;;;;21.49;52.58;96992.44;4994021;28;20387;-70
2022/08/15 04:54:47;;;;;;;;;;;;;;;21.53;52.16;96991.22;4996501;28;19925;-70
2022/08/15 04:57:26;;;;;;;;;;;;;;;21.60;51.63;96990.38;5007097;28;19925;-70
2022/08/15 05:00:00;;;;;;;;;;;;;;;21.63;51.01;96992.34;4986725;28;19965;-70
2022/08/15 05:02:57;;;;;;;;;;;;;;;21.68;50.83;96986.38;5003652;28;19929;-70
2022/08/15 05:05:31;;;;;;;;;;;;;;;21.70;50.71;96989.53;5008430;28;19928;-70
2022/08/15 05:08:30;;;;;;;;;;;;;;;21.73;50.65;96985.94;5013248;28;19921;-70
2022/08/15 05:11:05;;;;;;;;;;;;;;;21.75;50.49;96983.56;4988914;28;19921;-70
2022/08/15 05:13:35;;;;;;;;;;;;;;;21.80;50.20;96985.88;4995447;28;19921;-70
2022/08/15 05:16:07;;;;;;;;;;;;;;;21.81;50.24;96984.69;4992255;28;20287;-69
2022/08/15 05:18:43;;;;;;;;;;;;;;;21.92;50.32;96992.88;4985550;28;20387;-70
2022/08/15 05:21:16;;;;;;;;;;;;;;;22.00;49.75;96988.06;5001242;28;19920;-70
2022/08/15 05:23:44;;;;;;;;;;;;;;;22.05;49.69;96984.88;5000124;28;19944;-70
2022/08/15 05:26:20;;;;;;;;;;;;;;;22.05;50.37;96995.94;5019779;28;19928;-70
2022/08/15 05:29:08;;;;;;;;;;;;;;;22.11;50.27;97002.66;4996762;28;19921;-71
2022/08/15 05:31:39;;;;;;;;;;;;;;;22.22;49.74;96995.81;4987169;28;19922;-70
2022/08/15 05:34:11;;;;;;;;;;;;;;;22.29;49.49;96994.16;4973859;28;19921;-71
2022/08/15 05:36:54;;;;;;;;;;;;;;;22.34;49.82;96997.25;4977613;28;19948;-70
2022/08/15 05:39:23;;;;;;;;;;;;;;;22.46;49.38;96993.97;4993070;28;19929;-72
2022/08/15 05:41:56;;;;;;;;;;;;;;;22.56;49.20;96997.03;4975799;28;19969;-72
2022/08/15 05:44:28;;;;;;;;;;;;;;;22.80;48.46;97000.69;4993090;28;19965;-71
2022/08/15 05:47:09;;;;;;;;;;;;;;;22.78;48.43;97003.88;4993937;28;19925;-71
2022/08/15 05:49:40;;;;;;;;;;;;;;;22.61;48.86;96999.34;4992906;28;19929;-70
2022/08/15 05:52:29;;;;;;;;;;;;;;;22.61;49.20;97004.88;4993249;28;20016;-71
2022/08/15 05:55:17;;;;;;;;;;;;;;;22.67;49.27;97000.47;4977656;28;20361;-72
2022/08/15 05:57:49;;;;;;;;;;;;;;;22.61;49.33;97007.66;4973400;28;19921;-70
2022/08/15 06:00:20;;;;;;;;;;;;;;;22.58;49.57;97005.69;4986133;28;20392;-69
2022/08/15 06:02:49;;;;;;;;;;;;;;;22.53;49.77;97008.91;4970934;28;19937;-71
2022/08/15 06:05:27;;;;;;;;;;;;;;;22.54;49.92;97008.53;4975668;28;19933;-70
2022/08/15 06:08:08;;;;;;;;;;;;;;;22.51;50.27;97012.09;4985107;28;20633;-71
2022/08/15 06:11:03;;;;;;;;;;;;;;;22.51;50.16;97016.84;4972268;28;20347;-72
2022/08/15 06:13:34;;;;;;;;;;;;;;;22.48;50.26;97015.72;4989451;28;19929;-72
2022/08/15 06:16:06;;;;;;;;;;;;;;;22.50;50.46;97013.31;4987545;28;20028;-72
2022/08/15 06:18:55;;;;;;;;;;;;;;;22.49;50.23;97012.53;4985377;28;19922;-71
2022/08/15 06:21:49;;;;;;;;;;;;;;;22.52;50.27;97015.66;4990136;28;19948;-70
2022/08/15 06:24:22;;;;;;;;;;;;;;;22.54;50.17;97011.28;4990403;28;19922;-70
2022/08/15 06:26:56;;;;;;;;;;;;;;;22.51;50.47;97011.31;4972876;28;20297;-70
2022/08/15 06:29:49;;;;;;;;;;;;;;;22.56;50.33;97016.41;4990740;28;20042;-69
2022/08/15 06:32:18;;;;;;;;;;;;;;;22.71;50.29;97018.59;4986651;28;19930;-70
2022/08/15 06:34:50;;;;;;;;;;;;;;;22.88;49.83;97022.41;4987185;28;20012;-70
2022/08/15 06:37:25;;;;;;;;;;;;;;;22.89;50.04;97029.50;4976082;28;19921;-70
2022/08/15 06:40:09;;;;;;;;;;;;;;;22.87;49.92;97034.66;4976109;28;19926;-70
2022/08/15 06:42:40;;;;;;;;;;;;;;;22.85;50.56;97034.28;4976864;28;19984;-74
2022/08/15 06:45:15;;;;;;;;;;;;;;;22.95;50.11;97038.13;4983059;28;19929;-69
2022/08/15 06:47:44;;;;;;;;;;;;;;;22.85;50.55;97042.59;4989161;28;19937;-68
2022/08/15 06:50:18;;;;;;;;;;;;;;;22.82;50.72;97034.31;4973563;28;19928;-68
2022/08/15 06:52:50;;;;;;;;;;;;;;;22.84;50.49;97038.22;4971707;28;19922;-69
2022/08/15 06:55:23;;;;;;;;;;;;;;;22.81;50.62;97041.84;4974557;28;20021;-70
2022/08/15 06:57:57;;;;;;;;;;;;;;;22.67;51.20;97037.25;4975480;28;20276;-70
2022/08/15 07:00:28;;;;;;;;;;;;;;;22.65;51.19;97041.63;4969995;28;19925;-70
2022/08/15 07:03:12;;;;;;;;;;;;;;;22.56;51.66;97042.09;4987769;28;19932;-70
2022/08/15 07:05:44;;;;;;;;;;;;;;;22.54;51.55;97052.03;4989333;28;19929;-70
2022/08/15 07:08:13;;;;;;;;;;;;;;;22.60;51.35;97042.88;4988958;28;19988;-70
2022/08/15 07:10:43;;;;;;;;;;;;;;;22.56;51.40;97052.41;4967707;28;19922;-69
2022/08/15 07:13:46;;;;;;;;;;;;;;;22.51;51.76;97053.63;4991835;28;19986;-70
2022/08/15 07:16:26;;;;;;;;;;;;;;;22.40;52.09;97059.25;4972774;28;19972;-70
2022/08/15 07:19:21;;;;;;;;;;;;;;;22.36;52.35;97055.75;4990792;28;19929;-80
2022/08/15 07:21:59;;;;;;;;;;;;;;;22.35;52.45;97061.69;4973271;28;19929;-69
2022/08/15 07:24:28;;;;;;;;;;;;;;;22.38;51.97;97055.34;4973998;28;19925;-69
2022/08/15 07:27:08;;;;;;;;;;;;;;;22.43;51.98;97047.38;4986279;28;20301;-69
2022/08/15 07:29:42;;;;;;;;;;;;;;;22.33;52.12;97051.03;4987079;28;19930;-69
2022/08/15 07:32:13;;;;;;;;;;;;;;;22.35;52.23;97054.19;4991999;28;19921;-74
2022/08/15 07:34:57;;;;;;;;;;;;;;;22.41;52.33;97047.00;4994240;28;19929;-69
2022/08/15 07:37:32;;;;;;;;;;;;;;;22.45;52.03;97049.75;4986500;28;19929;-70
2022/08/15 07:40:18;;;;;;;;;;;;;;;22.45;52.29;97042.22;4994686;28;19987;-70
2022/08/15 07:42:48;;;;;;;;;;;;;;;22.52;51.78;97038.59;4993243;28;20032;-70
2022/08/15 07:45:28;;;;;;;;;;;;;;;22.54;52.24;97040.97;4997242;28;19921;-70
2022/08/15 07:48:04;;;;;;;;;;;;;;;22.60;51.57;97037.31;4983212;28;19925;-69
2022/08/15 07:50:39;;;;;;;;;;;;;;;22.71;51.26;97048.28;5010161;28;19922;-69
2022/08/15 07:53:16;;;;;;;;;;;;;;;22.72;51.62;97049.84;4994235;28;19960;-70
2022/08/15 07:56:07;;;;;;;;;;;;;;;22.92;50.74;97047.28;5007134;28;19922;-69
2022/08/15 07:59:08;;;;;;;;;;;;;;;22.88;50.65;97050.09;4995073;28;19925;-69
2022/08/15 08:02:04;;;;;;;;;;;;;;;22.93;50.57;97046.88;5011587;28;20276;-70
2022/08/15 08:04:35;;;;;;;;;;;;;;;22.91;50.78;97049.28;5007971;28;20264;-70
2022/08/15 08:07:05;;;;;;;;;;;;;;;22.96;51.16;97050.81;5008124;28;19925;-70
2022/08/15 08:09:36;;;;;;;;;;;;;;;23.02;50.55;97048.38;5007492;28;19929;-70
2022/08/15 08:12:30;;;;;;;;;;;;;;;23.05;50.42;97055.84;4992685;28;19940;-70
2022/08/15 08:15:19;;;;;;;;;;;;;;;23.19;50.29;97050.91;4992433;28;19926;-70
2022/08/15 08:18:09;;;;;;;;;;;;;;;23.32;49.57;97064.97;4995804;28;20288;-70
2022/08/15 08:20:41;;;;;;;;;;;;;;;23.36;49.67;97062.94;4993966;28;19984;-70
2022/08/15 08:23:37;;;;;;;;;;;;;;;23.35;49.82;97061.38;5009561;28;19987;-69
2022/08/15 08:26:32;;;;;;;;;;;;;;;23.44;49.19;97060.88;5012682;28;20392;-70
2022/08/15 08:29:04;;;;;;;;;;;;;;;23.50;49.15;97064.75;4995976;28;19929;-70
2022/08/15 08:32:26;;;;;;;;;;;;;;;23.76;48.00;97072.34;5009218;28;19925;-71
2022/08/15 08:35:02;;;;;;;;;;;;;;;23.70;47.87;97078.75;4993023;28;19922;-71
2022/08/15 08:37:31;;;;;;;;;;;;;;;23.84;48.01;97078.53;5010057;28;20028;-71
2022/08/15 08:41:24;;;;;;;;;;;;;;;24.26;46.90;97076.31;5005049;28;20012;-72
2022/08/15 08:43:05;;;;;;;;;;;;;;;24.57;46.27;97068.66;5008316;28;20063;-70
2022/08/15 08:45:35;;;;;;;;;;;;;;;24.74;45.41;97075.88;4997370;28;19921;-71
2022/08/15 08:48:17;;;;;;;;;;;;;;;24.63;45.64;97066.94;4986145;28;20020;-71
2022/08/15 08:50:49;;;;;;;;;;;;;;;24.65;45.56;97064.53;5004899;28;20371;-71
2022/08/15 08:53:21;;;;;;;;;;;;;;;24.79;45.17;97071.81;5009011;28;19922;-70
2022/08/15 08:55:58;;;;;;;;;;;;;;;24.69;45.38;97059.69;5011508;28;20376;-71
2022/08/15 08:58:28;;;;;;;;;;;;;;;24.59;45.66;97066.22;5007680;28;20020;-70
2022/08/15 09:01:04;;;;;;;;;;;;;;;24.37;46.08;97065.03;5011124;28;20384;-72
2022/08/15 09:03:38;;;;;;;;;;;;;;;24.26;46.37;97065.19;5015553;28;20466;-71
2022/08/15 09:06:10;;;;;;;;;;;;;;;24.15;46.89;97059.03;5019268;28;19925;-71
2022/08/15 09:08:54;;;;;;;;;;;;;;;24.10;47.81;97056.75;5007069;28;20491;-71
2022/08/15 09:11:23;;;;;;;;;;;;;;;24.18;46.83;97060.97;5023386;28;20379;-71
2022/08/15 09:13:51;;;;;;;;;;;;;;;24.16;47.91;97055.06;4990977;28;19921;-71
2022/08/15 09:16:24;;;;;;;;;;;;;;;24.24;47.24;97057.31;5009832;28;19925;-71
2022/08/15 09:19:21;;;;;;;;;;;;;;;24.21;46.94;97058.13;5013590;28;20347;-71
2022/08/15 09:21:51;;;;;;;;;;;;;;;24.20;47.13;97055.78;5019873;28;19963;-71
2022/08/15 09:24:20;;;;;;;;;;;;;;;24.23;48.17;97057.72;4981740;28;19921;-71
2022/08/15 09:27:07;;;;;;;;;;;;;;;24.29;47.71;97053.25;4992514;28;19921;-71
2022/08/15 09:29:43;;;;;;;7.80;3.17;;;;;;;24.36;46.27;97058.72;4978626;28;20446;-71
2022/08/15 09:32:36;;;;;;;8.27;3.10;;;;;;;24.46;46.28;97054.19;5001319;28;20417;-71
2022/08/15 09:35:14;;;;;;;7.97;3.20;;;;;;;24.54;46.24;97059.16;4992333;28;20437;-71
2022/08/15 09:38:02;;;;;;;5.38;2.95;;;;;;;24.63;44.65;97061.41;4980192;28;20797;-72
2022/08/15 09:41:03;;;;;;;6.97;3.00;;;;;;;24.62;44.59;97059.06;4991050;28;20424;-72
2022/08/15 09:44:03;;;;;;;4.23;2.97;;;;;;;24.61;44.60;97058.28;5009343;28;20447;-71
2022/08/15 09:47:22;;;;;;;6.18;3.22;;;;;;;24.69;44.54;97059.69;5002659;28;20412;-71
2022/08/15 09:50:21;;;;;;;6.35;2.65;;;;;;;24.65;44.70;97055.41;4995336;28;20422;-71
2022/08/15 09:53:14;;;;;;;5.50;2.80;;;;;;;24.66;44.35;97057.78;5013009;28;20539;-71
2022/08/15 09:55:46;;;;;;;5.75;3.00;;;;;;;24.52;44.33;97050.50;4972829;28;20460;-71
2022/08/15 09:58:24;;;;;;;7.30;2.97;;;;;;;24.48;44.15;97049.75;4994712;28;20420;-71
2022/08/15 10:01:03;;;;;;;5.07;3.15;;;;;;;24.54;44.24;97059.16;4991386;28;20406;-71
2022/08/15 10:03:53;;;;;;;4.95;2.92;;;;;;;24.57;44.30;97054.78;5010498;28;20505;-71
2022/08/15 10:06:24;;;;;;;5.10;3.10;;;;;;;24.69;43.88;97047.81;4998738;28;20430;-71
2022/08/15 10:09:12;;;;;;;6.07;3.07;;;;;;;24.79;43.69;97044.81;4974554;28;20426;-71
2022/08/15 10:11:59;;;;;;;6.63;2.80;;;;;;;24.96;42.95;97040.13;5010284;28;20889;-71
2022/08/15 10:14:49;;;;;;;6.22;2.88;;;;;;;24.97;42.25;97041.69;5010693;28;20440;-72
2022/08/15 10:17:27;;;;;;;4.13;2.80;;;;;;;24.88;43.09;97044.28;5010640;28;20562;-71
2022/08/15 10:19:57;;;;;;;6.13;2.80;;;;;;;24.91;43.04;97037.84;4997206;28;20403;-71
2022/08/15 10:22:49;;;;;;;4.57;2.55;;;;;;;25.01;42.26;97036.06;5002504;28;20415;-71
2022/08/15 10:25:28;;;;;;;5.57;2.70;;;;;;;25.21;41.35;97039.66;5009501;28;20406;-71
2022/08/15 10:27:59;;;;;;;6.85;2.30;;;;;;;25.20;41.29;97032.53;5013639;28;20419;-73
2022/08/15 10:31:25;;;;;;;4.47;2.33;;;;;;;25.23;41.27;97036.44;5006582;28;20914;-71
2022/08/15 10:34:19;;;;;;;6.43;2.50;;;;;;;25.25;42.16;97039.56;4989597;28;20429;-72
2022/08/15 10:37:17;;;;;;;6.85;2.90;;;;;;;25.43;41.02;97044.75;5005321;28;20895;-72
2022/08/15 10:40:01;;;;;;;3.97;2.50;;;;;;;25.55;40.79;97041.28;4988899;28;20428;-71
2022/08/15 10:42:36;;;;;;;5.40;2.40;;;;;;;25.73;40.80;97043.69;5006093;28;20502;-73
2022/08/15 10:45:14;;;;;;;4.25;2.15;;;;;;;25.90;41.17;97033.38;4991497;28;20824;-72
2022/08/15 10:47:47;;;;;;;4.53;2.42;;;;;;;25.99;39.87;97031.53;4992312;28;20787;-71
2022/08/15 10:50:42;;;;;;;4.13;2.03;;;;;;;26.05;40.99;97029.81;4989418;28;20500;-71
2022/08/15 10:53:22;;;;;;;5.13;1.98;;;;;;;25.97;39.97;97036.75;4995044;28;20512;-72
2022/08/15 10:55:52;;;;;;;3.67;1.90;;;;;;;26.00;40.56;97029.56;4991427;28;21047;-72
2022/08/15 10:58:32;;;;;;;4.30;1.90;;;;;;;26.08;39.74;97028.91;5008826;28;20417;-72
2022/08/15 11:01:06;;;;;;;4.60;1.90;;;;;;;26.16;39.86;97028.75;4990352;28;20693;-73
2022/08/15 11:03:42;;;;;;;3.23;1.90;;;;;;;26.21;39.50;97019.88;4985299;28;20756;-72
2022/08/15 11:06:34;;;;;;;7.68;2.17;;;;;;;26.26;39.10;97025.72;4974247;28;20429;-74
2022/08/15 11:09:09;;;;;;;4.60;2.13;;;;;;;26.19;39.26;97025.88;4990279;28;20408;-73
2022/08/15 11:11:43;;;;;;;4.00;2.03;;;;;;;26.21;39.18;97026.22;5006704;28;20471;-72
2022/08/15 11:14:19;;;;;;;4.10;2.00;;;;;;;26.48;37.81;97023.19;5011214;28;20431;-72
2022/08/15 11:17:00;;;;;;;3.35;1.80;;;;;;;26.40;38.93;97024.53;5008174;28;20507;-72
2022/08/15 11:19:30;;;;;;;4.32;1.95;;;;;;;26.25;38.65;97021.34;4988281;28;20424;-71
2022/08/15 11:22:33;;;;;;;3.78;1.80;;;;;;;26.32;39.20;97018.38;4989225;28;20421;-72
2022/08/15 11:25:05;;;;;;;4.07;2.00;;;;;;;26.49;38.63;97024.72;5006963;28;20427;-72
2022/08/15 11:27:39;;;;;;;3.33;1.92;;;;;;;26.49;38.45;97021.94;4975421;28;20405;-72
2022/08/15 11:30:22;;;;;;;4.80;1.80;;;;;;;26.53;37.49;97019.06;4991141;28;20424;-71
2022/08/15 11:32:52;;;;;;;3.65;1.70;;;;;;;26.46;38.06;97013.69;5008721;28;20915;-71
2022/08/15 11:35:30;;;;;;;3.05;1.60;;;;;;;26.37;38.83;97017.06;4991454;28;20471;-71
2022/08/15 11:38:00;;;;;;;4.28;1.92;;;;;;;26.49;38.17;97023.94;4974766;28;20512;-72
2022/08/15 11:40:52;;;;;;;3.97;1.80;;;;;;;26.55;37.33;97008.25;5006953;28;20425;-71
2022/08/15 11:43:22;;;;;;;3.35;1.75;;;;;;;26.40;37.73;97016.19;4990976;28;20444;-71
2022/08/15 11:45:54;;;;;;;6.03;1.92;;;;;;;26.34;37.51;97015.16;4991556;28;20519;-72
2022/08/15 11:48:27;;;;;;;4.73;1.97;;;;;;;26.08;37.97;97017.78;4990709;28;21082;-71
2022/08/15 11:51:07;;;;;;;3.67;1.80;;;;;;;25.88;38.75;97011.53;5008594;28;20413;-72
2022/08/15 11:54:02;;;;;;;4.82;1.77;;;;;;;26.03;38.48;97009.19;5005560;28;20429;-71
2022/08/15 11:56:45;;;;;;;3.25;1.40;;;;;;;26.09;37.57;97013.78;5004201;28;20834;-72
2022/08/15 11:59:24;;;;;;;3.20;1.70;;;;;;;26.29;37.43;97026.81;5011472;28;20428;-72
2022/08/15 12:02:10;;;;;;;6.35;1.95;;;;;;;26.15;36.98;97016.81;4988852;28;20966;-72
2022/08/15 12:05:28;;;;;;;3.80;1.52;;;;;;;26.06;37.83;97014.66;5007802;28;20460;-73
2022/08/15 12:08:11;;;;;;;4.60;1.80;;;;;;;25.96;38.56;97010.16;4973419;28;20915;-73
2022/08/15 12:11:05;;;;;;;4.38;1.92;;;;;;;26.01;38.66;97017.97;4988693;28;20428;-80
2022/08/15 12:13:36;;;;;;;4.68;1.90;;;;;;;26.09;38.92;97013.78;4985809;28;20945;-72
2022/08/15 12:16:12;;;;;;;4.88;1.63;;;;;;;26.22;39.40;97015.88;5010241;28;20428;-73
2022/08/15 12:19:29;;;;;;;3.53;1.65;;;;;;;26.42;38.62;97008.22;4992004;28;20421;-72
2022/08/15 12:21:59;;;;;;;3.17;1.55;;;;;;;26.67;38.17;97003.97;4991470;28;20525;-72
2022/08/15 12:24:48;;;;;;;4.43;2.03;;;;;;;27.00;36.66;96996.25;4975606;28;20795;-73
2022/08/15 12:27:17;;;;;;;4.82;1.55;;;;;;;27.15;35.32;96998.22;4995897;28;20440;-72
2022/08/15 12:29:45;;;;;;;3.28;1.80;;;;;;;27.15;35.00;96998.22;4994861;28;20492;-72
2022/08/15 12:32:19;;;;;;;2.75;1.50;;;;;;;27.01;35.39;96995.81;4999205;28;20420;-73
2022/08/15 12:35:07;;;;;;;3.22;1.58;;;;;;;26.91;35.68;96994.13;5013310;28;20505;-72
2022/08/15 12:37:55;;;;;;;3.42;1.52;;;;;;;26.82;36.83;97003.13;5009409;28;20882;-73
2022/08/15 12:40:26;;;;;;;3.80;1.63;;;;;;;27.02;36.47;96993.81;4977947;28;20960;-73
2022/08/15 12:43:16;;;;;;;3.63;1.80;;;;;;;26.93;36.18;96994.47;4991705;28;20432;-73
2022/08/15 12:45:44;;;;;;;3.22;1.63;;;;;;;27.03;36.24;96985.00;4992117;28;20428;-73
2022/08/15 12:48:22;;;;;;;3.28;1.70;;;;;;;27.27;35.42;96981.94;4991795;28;20424;-74
2022/08/15 12:51:09;;;;;;;4.50;2.08;;;;;;;27.37;36.10;96986.41;5010012;28;20422;-73
2022/08/15 12:53:40;;;;;;;4.53;1.70;;;;;;;27.24;35.63;96982.84;5013189;28;20432;-72
2022/08/15 12:56:09;;;;;;;3.08;1.73;;;;;;;27.24;36.06;96977.25;5011280;28;20543;-73
2022/08/15 12:59:01;;;;;;;3.10;1.67;;;;;;;27.33;36.25;96972.59;5013670;28;20434;-73
2022/08/15 13:01:33;;;;;;;4.03;1.73;;;;;;;27.37;36.08;96980.84;5009594;28;20794;-72
2022/08/15 13:04:30;;;;;;;4.80;1.70;;;;;;;27.40;35.65;96980.72;5008856;28;20559;-73
2022/08/15 13:07:20;;;;;;;5.22;2.00;;;;;;;27.20;36.02;96982.16;5011552;28;20424;-73
2022/08/15 13:10:01;;;;;;;4.70;1.80;;;;;;;26.85;36.70;96965.25;5007946;28;20785;-73
2022/08/15 13:12:49;;;;;;;3.20;1.60;;;;;;;26.64;37.17;96964.63;4995686;28;20435;-73
2022/08/15 13:15:21;;;;;;;3.83;1.70;;;;;;;26.85;35.54;96960.44;5001427;28;20527;-73
2022/08/15 13:17:56;;;;;;;4.45;1.90;;;;;;;26.70;36.34;96952.94;4993045;28;20416;-72
2022/08/15 13:23:38;;;;;;;4.00;1.90;;;;;;;27.04;36.04;96958.69;5008978;28;20430;-73
2022/08/15 13:26:26;;;;;;;4.18;1.75;;;;;;;27.06;35.96;96959.03;5005847;28;20463;-72
2022/08/15 13:29:00;;;;;;;4.63;1.80;;;;;;;27.22;35.33;96954.59;5011361;28;20434;-77
2022/08/15 13:31:29;;;;;;;6.68;2.00;;;;;;;26.99;36.63;96953.66;5006060;28;20420;-72
2022/08/15 13:34:00;;;;;;;4.10;1.70;;;;;;;26.86;36.70;96950.09;5012735;28;20502;-72
2022/08/15 13:36:59;;;;;;;3.60;1.70;;;;;;;26.74;36.74;96939.66;5010843;28;20424;-72